createdAt,value
2019-04-03T00:00:43.628Z,1007.47
2019-04-03T00:01:43.614Z,1007.48
2019-04-03T00:02:43.777Z,1007.48
2019-04-03T00:03:43.733Z,1007.45
2019-04-03T00:04:43.895Z,1007.44
2019-04-03T00:05:43.777Z,1007.43
2019-04-03T00:06:43.667Z,1007.45
2019-04-03T00:07:43.451Z,1007.44
2019-04-03T00:08:43.546Z,1007.46
2019-04-03T00:09:43.416Z,1007.41
2019-04-03T00:10:43.447Z,1007.36
2019-04-03T00:11:43.477Z,1007.4
2019-04-03T00:12:43.446Z,1007.4
2019-04-03T00:13:43.472Z,1007.34
2019-04-03T00:14:43.501Z,1007.39
2019-04-03T00:15:45.396Z,1007.35
2019-04-03T00:16:46.212Z,1007.38
2019-04-03T00:17:46.429Z,1007.35
2019-04-03T00:18:43.816Z,1007.4
2019-04-03T00:19:43.582Z,1007.34
2019-04-03T00:20:43.609Z,1007.35
2019-04-03T00:21:43.611Z,1007.32
2019-04-03T00:22:46.973Z,1007.31
2019-04-03T00:23:43.524Z,1007.29
2019-04-03T00:24:43.655Z,1007.33
2019-04-03T00:25:43.457Z,1007.33
2019-04-03T00:26:43.494Z,1007.32
2019-04-03T00:27:43.457Z,1007.31
2019-04-03T00:28:43.500Z,1007.34
2019-04-03T00:29:43.497Z,1007.33
2019-04-03T00:30:43.796Z,1007.29
2019-04-03T00:31:43.526Z,1007.31
2019-04-03T00:32:43.560Z,1007.31
2019-04-03T00:33:43.550Z,1007.3
2019-04-03T00:34:43.527Z,1007.3
2019-04-03T00:35:43.615Z,1007.26
2019-04-03T00:36:43.584Z,1007.29
2019-04-03T00:37:43.607Z,1007.27
2019-04-03T00:38:43.432Z,1007.3
2019-04-03T00:39:43.621Z,1007.3
2019-04-03T00:40:43.794Z,1007.3
2019-04-03T00:41:43.639Z,1007.26
2019-04-03T00:42:43.661Z,1007.23
2019-04-03T00:43:43.786Z,1007.27
2019-04-03T00:44:43.405Z,1007.25
2019-04-03T00:45:43.777Z,1007.24
2019-04-03T00:46:43.433Z,1007.24
2019-04-03T00:47:43.531Z,1007.24
2019-04-03T00:48:43.515Z,1007.21
2019-04-03T00:49:43.805Z,1007.23
2019-04-03T00:50:43.432Z,1007.22
2019-04-03T00:51:43.697Z,1007.19
2019-04-03T00:52:43.519Z,1007.16
2019-04-03T00:53:43.573Z,1007.2
2019-04-03T00:54:43.424Z,1007.19
2019-04-03T00:55:43.853Z,1007.24
2019-04-03T00:56:43.592Z,1007.23
2019-04-03T00:57:43.865Z,1007.28
2019-04-03T00:58:43.678Z,1007.29
2019-04-03T00:59:43.625Z,1007.27
2019-04-03T01:00:43.863Z,1007.23
2019-04-03T01:01:43.417Z,1007.25
2019-04-03T01:02:43.445Z,1007.19
2019-04-03T01:03:43.446Z,1007.21
2019-04-03T01:04:43.486Z,1007.22
2019-04-03T01:05:43.438Z,1007.19
2019-04-03T01:06:43.505Z,1007.19
2019-04-03T01:07:43.504Z,1007.19
2019-04-03T01:08:43.512Z,1007.19
2019-04-03T01:09:43.624Z,1007.22
2019-04-03T01:10:43.756Z,1007.24
2019-04-03T01:11:43.631Z,1007.23
2019-04-03T01:12:43.747Z,1007.21
2019-04-03T01:13:43.639Z,1007.23
2019-04-03T01:14:43.964Z,1007.22
2019-04-03T01:15:43.596Z,1007.21
2019-04-03T01:16:43.801Z,1007.21
2019-04-03T01:17:43.420Z,1007.21
2019-04-03T01:18:43.649Z,1007.2
2019-04-03T01:19:43.695Z,1007.21
2019-04-03T01:20:43.400Z,1007.18
2019-04-03T01:21:43.563Z,1007.19
2019-04-03T01:22:43.430Z,1007.16
2019-04-03T01:23:43.651Z,1007.15
2019-04-03T01:24:43.555Z,1007.15
2019-04-03T01:25:43.466Z,1007.1
2019-04-03T01:26:43.464Z,1007.09
2019-04-03T01:27:43.474Z,1007.09
2019-04-03T01:28:43.882Z,1007.08
2019-04-03T01:29:43.868Z,1007.08
2019-04-03T01:30:44.827Z,1007.07
2019-04-03T01:31:45.424Z,1007.05
2019-04-03T01:32:47.269Z,1007.04
2019-04-03T01:33:47.275Z,1007.07
2019-04-03T01:34:43.829Z,1007.04
2019-04-03T01:35:43.633Z,1007.05
2019-04-03T01:36:43.606Z,1007.03
2019-04-03T01:37:43.407Z,1007.03
2019-04-03T01:38:43.473Z,1007.05
2019-04-03T01:39:43.463Z,1007
2019-04-03T01:40:43.476Z,1007.05
2019-04-03T01:41:43.519Z,1007
2019-04-03T01:42:43.478Z,1006.96
2019-04-03T01:43:43.561Z,1006.99
2019-04-03T01:44:43.385Z,1007.01
2019-04-03T01:45:43.542Z,1006.98
2019-04-03T01:46:43.536Z,1007.02
2019-04-03T01:47:43.574Z,1006.98
2019-04-03T01:48:43.605Z,1007
2019-04-03T01:49:43.642Z,1006.99
2019-04-03T01:50:43.593Z,1006.96
2019-04-03T01:51:43.695Z,1006.98
2019-04-03T01:52:43.701Z,1006.95
2019-04-03T01:53:43.736Z,1006.98
2019-04-03T01:54:43.788Z,1006.98
2019-04-03T01:55:44.187Z,1007
2019-04-03T01:56:43.404Z,1006.98
2019-04-03T01:57:43.419Z,1006.95
2019-04-03T01:58:43.460Z,1006.95
2019-04-03T01:59:43.413Z,1006.93
2019-04-03T02:00:43.708Z,1006.92
2019-04-03T02:01:43.607Z,1006.9
2019-04-03T02:02:43.536Z,1006.87
2019-04-03T02:03:43.516Z,1006.86
2019-04-03T02:04:43.602Z,1006.85
2019-04-03T02:05:44.277Z,1006.9
2019-04-03T02:06:44.470Z,1006.88
2019-04-03T02:07:45.374Z,1006.89
2019-04-03T02:08:45.685Z,1006.86
2019-04-03T02:09:47.349Z,1006.78
2019-04-03T02:10:43.594Z,1006.8
2019-04-03T02:11:43.617Z,1006.8
2019-04-03T02:12:43.615Z,1006.77
2019-04-03T02:13:43.795Z,1006.79
2019-04-03T02:14:43.396Z,1006.79
2019-04-03T02:15:46.269Z,1006.77
2019-04-03T02:16:43.456Z,1006.81
2019-04-03T02:17:43.461Z,1006.85
2019-04-03T02:18:43.479Z,1006.81
2019-04-03T02:19:43.734Z,1006.82
2019-04-03T02:20:43.538Z,1006.86
2019-04-03T02:21:43.479Z,1006.82
2019-04-03T02:22:43.539Z,1006.76
2019-04-03T02:23:43.662Z,1006.76
2019-04-03T02:24:43.549Z,1006.73
2019-04-03T02:25:43.535Z,1006.73
2019-04-03T02:26:43.995Z,1006.75
2019-04-03T02:27:43.602Z,1006.78
2019-04-03T02:28:43.654Z,1006.76
2019-04-03T02:29:43.600Z,1006.75
2019-04-03T02:30:47.480Z,1006.71
2019-04-03T02:31:43.381Z,1006.72
2019-04-03T02:32:43.838Z,1006.69
2019-04-03T02:33:43.502Z,1006.67
2019-04-03T02:34:43.444Z,1006.7
2019-04-03T02:35:43.619Z,1006.68
2019-04-03T02:36:45.783Z,1006.67
2019-04-03T02:37:43.495Z,1006.67
2019-04-03T02:38:43.473Z,1006.67
2019-04-03T02:39:43.478Z,1006.75
2019-04-03T02:40:43.535Z,1006.7
2019-04-03T02:41:43.631Z,1006.7
2019-04-03T02:42:44.739Z,1006.71
2019-04-03T02:43:47.788Z,1006.72
2019-04-03T02:44:43.927Z,1006.69
2019-04-03T02:45:43.902Z,1006.7
2019-04-03T02:46:43.600Z,1006.65
2019-04-03T02:47:43.650Z,1006.66
2019-04-03T02:48:43.800Z,1006.64
2019-04-03T02:49:44.157Z,1006.64
2019-04-03T02:50:48.606Z,1006.63
2019-04-03T02:51:44.067Z,1006.61
2019-04-03T02:52:43.476Z,1006.59
2019-04-03T02:53:43.527Z,1006.59
2019-04-03T02:54:43.882Z,1006.63
2019-04-03T02:55:43.527Z,1006.62
2019-04-03T02:56:46.557Z,1006.59
2019-04-03T02:57:43.607Z,1006.57
2019-04-03T02:58:43.708Z,1006.58
2019-04-03T02:59:43.357Z,1006.59
2019-04-03T03:00:43.714Z,1006.59
2019-04-03T03:01:44.070Z,1006.61
2019-04-03T03:02:46.328Z,1006.58
2019-04-03T03:03:43.849Z,1006.58
2019-04-03T03:04:43.965Z,1006.58
2019-04-03T03:05:43.720Z,1006.54
2019-04-03T03:06:43.991Z,1006.54
2019-04-03T03:07:43.394Z,1006.53
2019-04-03T03:08:43.439Z,1006.53
2019-04-03T03:09:48.391Z,1006.54
2019-04-03T03:10:43.596Z,1006.54
2019-04-03T03:11:43.538Z,1006.57
2019-04-03T03:12:43.445Z,1006.54
2019-04-03T03:13:43.538Z,1006.52
2019-04-03T03:14:43.925Z,1006.54
2019-04-03T03:15:45.603Z,1006.51
2019-04-03T03:16:43.836Z,1006.54
2019-04-03T03:17:43.573Z,1006.54
2019-04-03T03:18:43.590Z,1006.55
2019-04-03T03:19:43.764Z,1006.53
2019-04-03T03:20:43.540Z,1006.53
2019-04-03T03:21:46.237Z,1006.53
2019-04-03T03:22:43.695Z,1006.5
2019-04-03T03:23:43.690Z,1006.53
2019-04-03T03:24:44.101Z,1006.54
2019-04-03T03:25:43.431Z,1006.55
2019-04-03T03:26:43.392Z,1006.51
2019-04-03T03:27:43.434Z,1006.5
2019-04-03T03:28:48.224Z,1006.49
2019-04-03T03:29:44.122Z,1006.51
2019-04-03T03:31:04.730Z,1006.5
2019-04-03T03:32:20.651Z,1006.5
2019-04-03T03:32:44.992Z,1006.5
2019-04-03T03:33:44.146Z,1006.53
2019-04-03T03:35:14.081Z,1006.49
2019-04-03T03:35:51.433Z,1006.51
2019-04-03T03:36:44.871Z,1006.51
2019-04-03T03:37:44.094Z,1006.47
2019-04-03T03:38:44.761Z,1006.44
2019-04-03T03:39:44.805Z,1006.44
2019-04-03T03:40:49.483Z,1006.42
2019-04-03T03:41:43.812Z,1006.4
2019-04-03T03:42:43.800Z,1006.39
2019-04-03T03:43:43.356Z,1006.37
2019-04-03T03:44:47.114Z,1006.31
2019-04-03T03:45:43.853Z,1006.33
2019-04-03T03:46:43.513Z,1006.32
2019-04-03T03:47:43.454Z,1006.27
2019-04-03T03:48:45.925Z,1006.32
2019-04-03T03:49:43.614Z,1006.32
2019-04-03T03:50:43.583Z,1006.35
2019-04-03T03:51:43.901Z,1006.31
2019-04-03T03:52:43.610Z,1006.28
2019-04-03T03:53:46.805Z,1006.31
2019-04-03T03:54:43.505Z,1006.31
2019-04-03T03:55:43.816Z,1006.3
2019-04-03T03:56:44.044Z,1006.31
2019-04-03T03:57:43.537Z,1006.3
2019-04-03T03:58:46.719Z,1006.28
2019-04-03T03:59:43.941Z,1006.3
2019-04-03T04:00:43.663Z,1006.28
2019-04-03T04:01:43.970Z,1006.29
2019-04-03T04:02:50.934Z,1006.28
2019-04-03T04:03:43.472Z,1006.3
2019-04-03T04:04:49.766Z,1006.3
2019-04-03T04:05:43.965Z,1006.31
2019-04-03T04:06:43.763Z,1006.27
2019-04-03T04:07:43.440Z,1006.27
2019-04-03T04:08:46.035Z,1006.25
2019-04-03T04:09:43.603Z,1006.24
2019-04-03T04:10:43.604Z,1006.21
2019-04-03T04:11:43.606Z,1006.23
2019-04-03T04:12:44.143Z,1006.23
2019-04-03T04:13:50.312Z,1006.18
2019-04-03T04:14:43.610Z,1006.2
2019-04-03T04:15:43.974Z,1006.16
2019-04-03T04:16:43.723Z,1006.18
2019-04-03T04:17:43.636Z,1006.16
2019-04-03T04:18:44.056Z,1006.14
2019-04-03T04:19:43.992Z,1006.15
2019-04-03T04:20:43.597Z,1006.17
2019-04-03T04:21:45.420Z,1006.14
2019-04-03T04:22:43.403Z,1006.15
2019-04-03T04:23:44.534Z,1006.14
2019-04-03T04:24:43.419Z,1006.18
2019-04-03T04:25:44.825Z,1006.16
2019-04-03T04:26:43.464Z,1006.16
2019-04-03T04:27:43.612Z,1006.14
2019-04-03T04:28:43.441Z,1006.14
2019-04-03T04:29:43.599Z,1006.12
2019-04-03T04:30:43.760Z,1006.11
2019-04-03T04:31:44.595Z,1006.06
2019-04-03T04:32:47.026Z,1006.1
2019-04-03T04:33:43.645Z,1006.08
2019-04-03T04:34:43.886Z,1006.09
2019-04-03T04:35:43.591Z,1006.07
2019-04-03T04:36:43.601Z,1006.11
2019-04-03T04:37:43.424Z,1006.07
2019-04-03T04:38:43.513Z,1006.08
2019-04-03T04:39:43.502Z,1006.01
2019-04-03T04:40:43.734Z,1005.99
2019-04-03T04:41:43.731Z,1005.98
2019-04-03T04:42:43.542Z,1005.97
2019-04-03T04:43:43.490Z,1005.96
2019-04-03T04:44:43.586Z,1005.95
2019-04-03T04:45:43.498Z,1005.96
2019-04-03T04:46:45.180Z,1005.96
2019-04-03T04:47:46.861Z,1005.92
2019-04-03T04:48:43.596Z,1005.92
2019-04-03T04:49:43.636Z,1005.9
2019-04-03T04:50:43.657Z,1005.89
2019-04-03T04:51:43.667Z,1005.92
2019-04-03T04:52:43.510Z,1005.91
2019-04-03T04:53:43.507Z,1005.93
2019-04-03T04:54:43.362Z,1005.95
2019-04-03T04:55:43.348Z,1005.98
2019-04-03T04:56:43.388Z,1005.98
2019-04-03T04:57:43.492Z,1005.98
2019-04-03T04:58:44.066Z,1005.97
2019-04-03T04:59:45.683Z,1006
2019-04-03T05:00:47.908Z,1006.05
2019-04-03T05:01:43.610Z,1006.01
2019-04-03T05:02:43.530Z,1005.99
2019-04-03T05:03:43.459Z,1005.99
2019-04-03T05:04:43.798Z,1005.99
2019-04-03T05:05:43.705Z,1005.97
2019-04-03T05:06:43.539Z,1005.96
2019-04-03T05:07:43.819Z,1005.95
2019-04-03T05:08:43.629Z,1005.92
2019-04-03T05:09:43.467Z,1005.9
2019-04-03T05:10:43.407Z,1005.93
2019-04-03T05:11:43.743Z,1005.89
2019-04-03T05:12:46.004Z,1005.91
2019-04-03T05:13:47.243Z,1005.94
2019-04-03T05:14:43.577Z,1005.88
2019-04-03T05:15:43.527Z,1005.91
2019-04-03T05:16:43.478Z,1005.91
2019-04-03T05:17:43.786Z,1005.89
2019-04-03T05:18:43.569Z,1005.9
2019-04-03T05:19:43.495Z,1005.9
2019-04-03T05:20:43.566Z,1005.85
2019-04-03T05:21:43.518Z,1005.86
2019-04-03T05:22:43.709Z,1005.8
2019-04-03T05:23:43.934Z,1005.86
2019-04-03T05:24:43.645Z,1005.83
2019-04-03T05:25:43.566Z,1005.81
2019-04-03T05:26:43.480Z,1005.79
2019-04-03T05:27:43.335Z,1005.82
2019-04-03T05:28:57.826Z,1005.81
2019-04-03T05:29:43.345Z,1005.82
2019-04-03T05:30:43.358Z,1005.81
2019-04-03T05:31:43.486Z,1005.79
2019-04-03T05:32:43.359Z,1005.8
2019-04-03T05:33:43.431Z,1005.81
2019-04-03T05:34:44.809Z,1005.8
2019-04-03T05:35:46.695Z,1005.83
2019-04-03T05:36:44.126Z,1005.8
2019-04-03T05:37:43.760Z,1005.79
2019-04-03T05:38:43.473Z,1005.81
2019-04-03T05:39:43.608Z,1005.79
2019-04-03T05:40:43.578Z,1005.75
2019-04-03T05:41:43.552Z,1005.77
2019-04-03T05:42:44.168Z,1005.77
2019-04-03T05:43:43.666Z,1005.76
2019-04-03T05:44:43.407Z,1005.76
2019-04-03T05:45:43.436Z,1005.76
2019-04-03T05:46:43.420Z,1005.73
2019-04-03T05:47:43.722Z,1005.75
2019-04-03T05:48:43.402Z,1005.76
2019-04-03T05:49:49.100Z,1005.72
2019-04-03T05:50:43.449Z,1005.69
2019-04-03T05:51:43.723Z,1005.65
2019-04-03T05:52:43.731Z,1005.63
2019-04-03T05:53:43.534Z,1005.66
2019-04-03T05:54:45.155Z,1005.63
2019-04-03T05:55:43.511Z,1005.63
2019-04-03T05:56:43.602Z,1005.65
2019-04-03T05:57:46.312Z,1005.64
2019-04-03T05:59:00.949Z,1005.64
2019-04-03T05:59:44.701Z,1005.66
2019-04-03T06:00:43.690Z,1005.65
2019-04-03T06:01:47.358Z,1005.65
2019-04-03T06:02:43.338Z,1005.67
2019-04-03T06:03:46.039Z,1005.65
2019-04-03T06:04:43.711Z,1005.62
2019-04-03T06:05:44.825Z,1005.63
2019-04-03T06:06:47.859Z,1005.63
2019-04-03T06:07:43.405Z,1005.63
2019-04-03T06:08:43.413Z,1005.66
2019-04-03T06:09:43.458Z,1005.66
2019-04-03T06:10:43.509Z,1005.65
2019-04-03T06:11:43.550Z,1005.66
2019-04-03T06:12:46.757Z,1005.65
2019-04-03T06:13:43.477Z,1005.63
2019-04-03T06:14:43.591Z,1005.62
2019-04-03T06:15:44.006Z,1005.64
2019-04-03T06:16:43.530Z,1005.62
2019-04-03T06:17:43.392Z,1005.64
2019-04-03T06:18:48.403Z,1005.67
2019-04-03T06:19:43.420Z,1005.67
2019-04-03T06:20:44.135Z,1005.63
2019-04-03T06:21:46.961Z,1005.68
2019-04-03T06:22:43.713Z,1005.64
2019-04-03T06:23:43.520Z,1005.62
2019-04-03T06:24:43.430Z,1005.62
2019-04-03T06:25:43.874Z,1005.67
2019-04-03T06:26:45.196Z,1005.66
2019-04-03T06:27:46.535Z,1005.64
2019-04-03T06:28:47.960Z,1005.65
2019-04-03T06:29:43.600Z,1005.64
2019-04-03T06:30:43.798Z,1005.64
2019-04-03T06:31:43.668Z,1005.61
2019-04-03T06:32:43.590Z,1005.59
2019-04-03T06:33:43.466Z,1005.56
2019-04-03T06:34:44.419Z,1005.56
2019-04-03T06:35:46.269Z,1005.55
2019-04-03T06:36:43.302Z,1005.57
2019-04-03T06:37:43.383Z,1005.58
2019-04-03T06:38:43.479Z,1005.59
2019-04-03T06:39:43.664Z,1005.58
2019-04-03T06:40:43.393Z,1005.52
2019-04-03T06:41:43.550Z,1005.52
2019-04-03T06:42:45.808Z,1005.51
2019-04-03T06:43:43.683Z,1005.54
2019-04-03T06:44:43.904Z,1005.5
2019-04-03T06:45:44.527Z,1005.48
2019-04-03T06:46:43.452Z,1005.51
2019-04-03T06:47:43.422Z,1005.48
2019-04-03T06:48:43.507Z,1005.48
2019-04-03T06:49:43.659Z,1005.49
2019-04-03T06:50:43.837Z,1005.48
2019-04-03T06:51:43.344Z,1005.49
2019-04-03T06:52:43.301Z,1005.49
2019-04-03T06:53:43.655Z,1005.48
2019-04-03T06:54:45.383Z,1005.47
2019-04-03T06:55:43.356Z,1005.47
2019-04-03T06:56:43.391Z,1005.51
2019-04-03T06:57:43.458Z,1005.49
2019-04-03T06:58:45.308Z,1005.48
2019-04-03T06:59:43.336Z,1005.45
2019-04-03T07:00:47.675Z,1005.4
2019-04-03T07:01:43.568Z,1005.41
2019-04-03T07:02:43.469Z,1005.39
2019-04-03T07:03:43.315Z,1005.38
2019-04-03T07:04:43.562Z,1005.36
2019-04-03T07:05:43.926Z,1005.39
2019-04-03T07:06:45.881Z,1005.35
2019-04-03T07:07:43.959Z,1005.39
2019-04-03T07:08:43.874Z,1005.35
2019-04-03T07:09:43.394Z,1005.32
2019-04-03T07:10:55.792Z,1005.34
2019-04-03T07:11:44.194Z,1005.33
2019-04-03T07:12:43.602Z,1005.3
2019-04-03T07:13:43.669Z,1005.32
2019-04-03T07:14:43.512Z,1005.3
2019-04-03T07:15:43.469Z,1005.27
2019-04-03T07:16:43.441Z,1005.24
2019-04-03T07:17:43.730Z,1005.24
2019-04-03T07:18:43.546Z,1005.21
2019-04-03T07:19:43.599Z,1005.15
2019-04-03T07:20:43.535Z,1005.15
2019-04-03T07:21:43.449Z,1005.16
2019-04-03T07:22:43.422Z,1005.18
2019-04-03T07:23:43.539Z,1005.19
2019-04-03T07:24:43.505Z,1005.21
2019-04-03T07:25:43.511Z,1005.2
2019-04-03T07:26:43.995Z,1005.23
2019-04-03T07:27:43.875Z,1005.2
2019-04-03T07:28:44.130Z,1005.25
2019-04-03T07:29:43.324Z,1005.29
2019-04-03T07:30:43.428Z,1005.32
2019-04-03T07:31:43.439Z,1005.34
2019-04-03T07:32:43.629Z,1005.36
2019-04-03T07:33:43.378Z,1005.38
2019-04-03T07:34:43.540Z,1005.36
2019-04-03T07:35:43.560Z,1005.4
2019-04-03T07:36:46.840Z,1005.41
2019-04-03T07:37:43.870Z,1005.39
2019-04-03T07:38:43.488Z,1005.46
2019-04-03T07:39:43.933Z,1005.47
2019-04-03T07:40:43.633Z,1005.52
2019-04-03T07:41:43.539Z,1005.55
2019-04-03T07:42:43.635Z,1005.59
2019-04-03T07:43:43.708Z,1005.62
2019-04-03T07:44:43.370Z,1005.62
2019-04-03T07:45:44.170Z,1005.63
2019-04-03T07:46:43.733Z,1005.67
2019-04-03T07:47:43.532Z,1005.66
2019-04-03T07:48:43.645Z,1005.67
2019-04-03T07:49:43.422Z,1005.71
2019-04-03T07:50:44.360Z,1005.73
2019-04-03T07:51:44.608Z,1005.73
2019-04-03T07:52:43.502Z,1005.78
2019-04-03T07:53:43.431Z,1005.77
2019-04-03T07:54:43.686Z,1005.79
2019-04-03T07:55:44.512Z,1005.8
2019-04-03T07:56:43.429Z,1005.79
2019-04-03T07:57:43.430Z,1005.77
2019-04-03T07:58:43.469Z,1005.73
2019-04-03T07:59:43.473Z,1005.73
2019-04-03T08:00:43.623Z,1005.73
2019-04-03T08:01:43.642Z,1005.72
2019-04-03T08:02:50.129Z,1005.68
2019-04-03T08:03:43.280Z,1005.71
2019-04-03T08:04:43.282Z,1005.67
2019-04-03T08:05:43.297Z,1005.7
2019-04-03T08:06:43.339Z,1005.7
2019-04-03T08:07:43.941Z,1005.67
2019-04-03T08:08:43.421Z,1005.66
2019-04-03T08:09:43.367Z,1005.65
2019-04-03T08:10:43.357Z,1005.69
2019-04-03T08:11:43.494Z,1005.71
2019-04-03T08:12:43.458Z,1005.71
2019-04-03T08:13:43.441Z,1005.71
2019-04-03T08:14:43.434Z,1005.71
2019-04-03T08:15:45.556Z,1005.74
2019-04-03T08:16:43.473Z,1005.74
2019-04-03T08:17:43.470Z,1005.74
2019-04-03T08:18:43.257Z,1005.73
2019-04-03T08:19:46.200Z,1005.71
2019-04-03T08:20:44.050Z,1005.75
2019-04-03T08:21:43.499Z,1005.74
2019-04-03T08:22:43.258Z,1005.72
2019-04-03T08:23:43.448Z,1005.72
2019-04-03T08:24:43.694Z,1005.73
2019-04-03T08:25:49.244Z,1005.76
2019-04-03T08:26:43.303Z,1005.76
2019-04-03T08:27:43.930Z,1005.77
2019-04-03T08:28:43.726Z,1005.8
2019-04-03T08:29:43.467Z,1005.75
2019-04-03T08:30:43.656Z,1005.76
2019-04-03T08:31:49.098Z,1005.77
2019-04-03T08:32:43.443Z,1005.75
2019-04-03T08:33:43.537Z,1005.69
2019-04-03T08:34:43.647Z,1005.69
2019-04-03T08:35:43.514Z,1005.67
2019-04-03T08:36:44.171Z,1005.65
2019-04-03T08:37:43.686Z,1005.68
2019-04-03T08:38:45.790Z,1005.66
2019-04-03T08:39:43.280Z,1005.61
2019-04-03T08:40:43.709Z,1005.57
2019-04-03T08:41:43.315Z,1005.55
2019-04-03T08:42:43.383Z,1005.53
2019-04-03T08:43:43.524Z,1005.53
2019-04-03T08:44:43.327Z,1005.57
2019-04-03T08:45:43.421Z,1005.6
2019-04-03T08:46:44.769Z,1005.62
2019-04-03T08:47:47.015Z,1005.63
2019-04-03T08:48:43.424Z,1005.59
2019-04-03T08:49:43.536Z,1005.62
2019-04-03T08:50:43.580Z,1005.64
2019-04-03T08:51:43.469Z,1005.65
2019-04-03T08:52:43.552Z,1005.65
2019-04-03T08:53:43.806Z,1005.67
2019-04-03T08:54:43.479Z,1005.73
2019-04-03T08:55:47.074Z,1005.73
2019-04-03T08:56:43.479Z,1005.72
2019-04-03T08:57:47.091Z,1005.76
2019-04-03T08:58:46.109Z,1005.77
2019-04-03T08:59:43.250Z,1005.8
2019-04-03T09:00:43.366Z,1005.79
2019-04-03T09:01:43.287Z,1005.79
2019-04-03T09:02:44.667Z,1005.77
2019-04-03T09:03:46.528Z,1005.75
2019-04-03T09:04:43.339Z,1005.75
2019-04-03T09:05:43.307Z,1005.77
2019-04-03T09:06:43.361Z,1005.75
2019-04-03T09:07:43.373Z,1005.74
2019-04-03T09:08:43.398Z,1005.75
2019-04-03T09:09:43.388Z,1005.73
2019-04-03T09:10:43.464Z,1005.73
2019-04-03T09:11:43.729Z,1005.72
2019-04-03T09:12:43.438Z,1005.74
2019-04-03T09:13:43.803Z,1005.71
2019-04-03T09:14:43.471Z,1005.7
2019-04-03T09:15:43.345Z,1005.69
2019-04-03T09:16:43.459Z,1005.72
2019-04-03T09:17:43.673Z,1005.68
2019-04-03T09:18:43.716Z,1005.67
2019-04-03T09:19:43.480Z,1005.65
2019-04-03T09:20:44.696Z,1005.65
2019-04-03T09:21:51.361Z,1005.65
2019-04-03T09:22:43.708Z,1005.64
2019-04-03T09:23:43.337Z,1005.66
2019-04-03T09:24:43.398Z,1005.64
2019-04-03T09:25:43.385Z,1005.62
2019-04-03T09:26:43.506Z,1005.6
2019-04-03T09:27:43.474Z,1005.59
2019-04-03T09:28:43.448Z,1005.54
2019-04-03T09:29:46.089Z,1005.56
2019-04-03T09:30:43.688Z,1005.59
2019-04-03T09:31:43.480Z,1005.55
2019-04-03T09:32:43.551Z,1005.52
2019-04-03T09:33:43.951Z,1005.58
2019-04-03T09:34:43.225Z,1005.57
2019-04-03T09:35:43.890Z,1005.59
2019-04-03T09:36:43.299Z,1005.58
2019-04-03T09:37:46.864Z,1005.59
2019-04-03T09:38:43.284Z,1005.58
2019-04-03T09:39:46.573Z,1005.61
2019-04-03T09:40:44.018Z,1005.62
2019-04-03T09:41:43.346Z,1005.61
2019-04-03T09:42:43.346Z,1005.56
2019-04-03T09:43:43.357Z,1005.57
2019-04-03T09:44:43.505Z,1005.59
2019-04-03T09:45:43.764Z,1005.54
2019-04-03T09:46:45.698Z,1005.56
2019-04-03T09:47:43.502Z,1005.57
2019-04-03T09:48:43.687Z,1005.61
2019-04-03T09:49:44.723Z,1005.66
2019-04-03T09:50:47.367Z,1005.66
2019-04-03T09:51:43.251Z,1005.67
2019-04-03T09:52:50.710Z,1005.65
2019-04-03T09:53:43.372Z,1005.68
2019-04-03T09:54:43.369Z,1005.72
2019-04-03T09:55:43.526Z,1005.74
2019-04-03T09:57:05.256Z,1005.75
2019-04-03T09:57:43.544Z,1005.73
2019-04-03T09:58:43.462Z,1005.7
2019-04-03T09:59:43.386Z,1005.75
2019-04-03T10:00:43.774Z,1005.75
2019-04-03T10:01:43.996Z,1005.8
2019-04-03T10:02:43.789Z,1005.79
2019-04-03T10:03:43.593Z,1005.77
2019-04-03T10:04:43.597Z,1005.82
2019-04-03T10:05:43.431Z,1005.8
2019-04-03T10:06:43.915Z,1005.82
2019-04-03T10:07:43.905Z,1005.85
2019-04-03T10:08:43.626Z,1005.83
2019-04-03T10:09:45.047Z,1005.82
2019-04-03T10:10:43.245Z,1005.85
2019-04-03T10:11:43.551Z,1005.84
2019-04-03T10:12:49.061Z,1005.8
2019-04-03T10:13:43.397Z,1005.82
2019-04-03T10:14:43.436Z,1005.78
2019-04-03T10:15:43.777Z,1005.78
2019-04-03T10:16:43.207Z,1005.77
2019-04-03T10:17:43.453Z,1005.75
2019-04-03T10:18:43.699Z,1005.76
2019-04-03T10:19:46.813Z,1005.76
2019-04-03T10:20:43.349Z,1005.75
2019-04-03T10:21:43.753Z,1005.72
2019-04-03T10:22:43.931Z,1005.69
2019-04-03T10:23:43.559Z,1005.68
2019-04-03T10:24:44.152Z,1005.65
2019-04-03T10:25:43.851Z,1005.66
2019-04-03T10:26:43.297Z,1005.63
2019-04-03T10:27:43.860Z,1005.61
2019-04-03T10:28:48.464Z,1005.56
2019-04-03T10:29:43.426Z,1005.54
2019-04-03T10:30:43.256Z,1005.54
2019-04-03T10:31:43.894Z,1005.47
2019-04-03T10:32:43.695Z,1005.48
2019-04-03T10:33:43.560Z,1005.44
2019-04-03T10:34:43.611Z,1005.42
2019-04-03T10:35:43.348Z,1005.39
2019-04-03T10:36:43.934Z,1005.34
2019-04-03T10:37:47.199Z,1005.3
2019-04-03T10:38:43.739Z,1005.25
2019-04-03T10:39:45.058Z,1005.25
2019-04-03T10:40:43.461Z,1005.25
2019-04-03T10:41:43.969Z,1005.29
2019-04-03T10:42:43.553Z,1005.28
2019-04-03T10:43:43.197Z,1005.33
2019-04-03T10:44:43.396Z,1005.34
2019-04-03T10:45:43.199Z,1005.36
2019-04-03T10:46:43.376Z,1005.33
2019-04-03T10:47:45.114Z,1005.33
2019-04-03T10:48:43.503Z,1005.36
2019-04-03T10:49:43.269Z,1005.35
2019-04-03T10:50:43.830Z,1005.33
2019-04-03T10:51:43.950Z,1005.32
2019-04-03T10:52:49.269Z,1005.33
2019-04-03T10:53:43.315Z,1005.3
2019-04-03T10:54:43.751Z,1005.4
2019-04-03T10:55:43.759Z,1005.25
2019-04-03T10:56:43.518Z,1005.28
2019-04-03T10:57:43.395Z,1005.3
2019-04-03T10:58:44.497Z,1005.32
2019-04-03T10:59:43.894Z,1005.3
2019-04-03T11:00:43.797Z,1005.31
2019-04-03T11:01:43.699Z,1005.31
2019-04-03T11:02:43.486Z,1005.32
2019-04-03T11:03:43.349Z,1005.31
2019-04-03T11:04:43.322Z,1005.26
2019-04-03T11:05:43.811Z,1005.25
2019-04-03T11:06:43.414Z,1005.28
2019-04-03T11:07:43.657Z,1005.28
2019-04-03T11:08:43.578Z,1005.26
2019-04-03T11:09:43.447Z,1005.29
2019-04-03T11:10:43.402Z,1005.29
2019-04-03T11:11:44.219Z,1005.28
2019-04-03T11:12:43.423Z,1005.28
2019-04-03T11:13:43.785Z,1005.26
2019-04-03T11:14:43.981Z,1005.22
2019-04-03T11:15:45.164Z,1005.1
2019-04-03T11:16:47.371Z,1005.18
2019-04-03T11:17:43.552Z,1005.12
2019-04-03T11:18:43.744Z,1005.15
2019-04-03T11:19:44.971Z,1005.2
2019-04-03T11:20:43.174Z,1005.19
2019-04-03T11:21:45.597Z,1005.19
2019-04-03T11:22:44.075Z,1005.25
2019-04-03T11:23:46.091Z,1005.23
2019-04-03T11:24:43.566Z,1005.22
2019-04-03T11:25:48.000Z,1005.24
2019-04-03T11:26:43.496Z,1005.25
2019-04-03T11:27:46.482Z,1005.26
2019-04-03T11:28:43.812Z,1005.29
2019-04-03T11:29:43.427Z,1005.29
2019-04-03T11:30:43.488Z,1005.35
2019-04-03T11:31:43.614Z,1005.37
2019-04-03T11:32:43.927Z,1005.36
2019-04-03T11:33:48.863Z,1005.34
2019-04-03T11:34:43.640Z,1005.33
2019-04-03T11:35:43.743Z,1005.4
2019-04-03T11:36:43.408Z,1005.41
2019-04-03T11:37:43.324Z,1005.46
2019-04-03T11:38:43.565Z,1005.51
2019-04-03T11:39:47.304Z,1005.49
2019-04-03T11:40:43.240Z,1005.43
2019-04-03T11:41:43.695Z,1005.35
2019-04-03T11:42:43.481Z,1005.24
2019-04-03T11:43:43.368Z,1005.17
2019-04-03T11:44:43.301Z,1005.15
2019-04-03T11:45:43.299Z,1005.17
2019-04-03T11:46:43.616Z,1005.15
2019-04-03T11:47:47.352Z,1005.14
2019-04-03T11:48:44.041Z,1005.04
2019-04-03T11:49:43.536Z,1005
2019-04-03T11:50:43.386Z,1004.98
2019-04-03T11:51:43.409Z,1004.98
2019-04-03T11:52:43.433Z,1004.97
2019-04-03T11:53:46.451Z,1004.95
2019-04-03T11:54:43.173Z,1004.91
2019-04-03T11:55:43.371Z,1004.94
2019-04-03T11:56:45.970Z,1004.92
2019-04-03T11:57:43.286Z,1004.91
2019-04-03T11:58:43.409Z,1004.9
2019-04-03T11:59:43.182Z,1004.94
2019-04-03T12:00:43.322Z,1004.96
2019-04-03T12:01:43.365Z,1004.94
2019-04-03T12:02:45.246Z,1004.99
2019-04-03T12:03:43.278Z,1004.99
2019-04-03T12:04:44.765Z,1005
2019-04-03T12:05:43.297Z,1004.98
2019-04-03T12:06:43.342Z,1004.92
2019-04-03T12:07:43.481Z,1004.95
2019-04-03T12:08:46.211Z,1004.96